Latest Weather Observations for Kyabram

IDV60801

Issued at 7:32 pm EDT Monday 25 October 2021 (issued every 10 minutes, with the page automatically refreshed every 10 minutes)

About weather observations | Map of weather stations | Latest weather observations for VIC | Other Formats
Station Details ID: 080091 Name: KYABRAM Lat: -36.34 Lon: 145.06 Height: 105.0 m
Data from the previous 72 hours. | See also: Recent months at Kyabram
Date/Time
EDT
Temp
°C
App
Temp
°C
Dew
Point
°C
Rel
Hum
%
Delta-T
°C
Wind Press
QNH
hPa
Press
MSL
hPa
Rain since
9am
mm
Dir  Spd
km/h
Gust
km/h
Spd
kts
Gust
kts
25/07:30pm 13.1 9.3 3.7 53 4.3 S 13 22 7 12 - - 0.0
25/07:00pm 14.5 9.9 3.9 49 4.9 S 17 28 9 15 - - 0.0
25/06:30pm 15.5 10.4 3.9 46 5.4 S 20 30 11 16 - - 0.0
25/06:00pm 16.1 11.7 4.5 46 5.5 S 17 35 9 19 - - 0.0
25/05:30pm 16.6 12.1 4.3 44 5.8 SSW 17 28 9 15 - - 0.0
25/05:00pm 17.1 12.2 4.1 42 6.1 S 19 28 10 15 - - 0.0
25/04:30pm 16.8 12.1 5.1 46 5.6 S 19 32 10 17 - - 0.0
25/04:00pm 17.7 13.0 5.0 43 6.1 SSW 19 32 10 17 - - 0.0
25/03:30pm 17.3 12.4 3.9 41 6.3 S 19 30 10 16 - - 0.0
25/03:00pm 16.9 12.3 3.6 41 6.2 S 17 32 9 17 - - 0.0
25/02:30pm 16.5 11.6 3.9 43 5.9 S 19 39 10 21 - - 0.0
25/02:00pm 15.7 10.9 4.7 48 5.2 S 19 35 10 19 - - 0.0
25/01:30pm 16.4 11.9 4.4 45 5.7 S 17 32 9 17 - - 0.0
25/01:00pm 15.8 11.0 5.7 51 4.9 S 20 32 11 17 - - 0.0
25/12:30pm 15.7 11.8 5.3 50 5.0 S 15 24 8 13 - - 0.0
25/12:00pm 15.3 10.4 4.1 47 5.2 S 19 33 10 18 - - 0.0
25/11:30am 15.2 10.8 4.9 50 4.9 S 17 30 9 16 - - 0.0
25/11:00am 15.1 10.5 5.6 53 4.5 S 19 30 10 16 - - 0.0
25/10:30am 14.9 10.2 6.2 56 4.2 S 20 35 11 19 - - 0.0
25/10:00am 13.2 8.0 5.4 59 3.7 S 22 32 12 17 - - 0.0
25/09:30am 11.4 5.0 5.3 66 2.8 S 28 39 15 21 - - 0.0
25/09:00am 11.4 6.6 5.7 68 2.7 SSW 20 28 11 15 - - 0.0
25/08:30am 10.8 7.3 5.3 69 2.5 SSW 13 24 7 13 - - 0.0
25/08:00am 9.3 6.6 5.5 77 1.7 SW 9 15 5 8 - - 0.0
25/07:30am 8.2 5.5 5.7 84 1.1 SW 9 13 5 7 - - 0.0
25/07:00am 7.1 4.5 6.0 93 0.5 SW 9 15 5 8 - - 0.0
25/06:30am 5.9 3.1 5.2 95 0.3 WSW 9 13 5 7 - - 0.0
25/06:00am 5.6 2.8 5.2 97 0.2 WSW 9 15 5 8 - - 0.0
25/05:30am 5.6 3.2 5.2 97 0.2 SW 7 13 4 7 - - 0.0
25/05:00am 6.0 3.1 4.8 92 0.5 SW 9 15 5 8 - - 0.0
25/04:30am 6.4 3.7 5.4 93 0.4 SW 9 15 5 8 - - 0.0
25/04:00am 6.7 4.1 6.1 96 0.3 SW 9 13 5 7 - - 0.0
25/03:30am 6.3 3.9 5.4 94 0.4 SW 7 13 4 7 - - 0.0
25/03:00am 6.6 4.3 5.7 94 0.4 SW 7 13 4 7 - - 0.0
25/02:30am 6.3 3.9 5.3 93 0.4 SW 7 11 4 6 - - 0.0
25/02:00am 6.9 4.5 5.1 88 0.8 SW 7 11 4 6 - - 0.0
25/01:30am 7.8 3.8 4.7 81 1.4 SSW 15 19 8 10 - - 0.0
25/01:00am 8.6 4.2 4.8 77 1.7 SSW 17 24 9 13 - - 0.0
25/12:30am 8.5 4.5 4.9 78 1.6 S 15 20 8 11 - - 0.0
25/12:00am 8.0 4.6 6.1 88 0.9 S 13 19 7 10 - - 0.0
 
Date/Time
EDT
Temp
°C
App
Temp
°C
Dew
Point
°C
Rel
Hum
%
Delta-T
°C
Wind Press
QNH
hPa
Press
MSL
hPa
Rain since
9am
mm
Dir  Spd
km/h
Gust
km/h
Spd
kts
Gust
kts
24/11:30pm 8.3 4.9 5.9 85 1.1 S 13 17 7 9 - - 0.0
24/11:00pm 8.9 5.3 5.1 77 1.7 S 13 19 7 10 - - 0.0
24/10:30pm 9.6 5.9 4.6 71 2.2 S 13 22 7 12 - - 0.0
24/10:00pm 10.0 5.9 4.2 67 2.6 S 15 22 8 12 - - 0.0
24/09:30pm 10.4 6.3 4.3 66 2.7 S 15 24 8 13 - - 0.0
24/09:00pm 10.6 7.0 4.9 68 2.6 S 13 17 7 9 - - 0.0
24/08:30pm 11.3 7.7 5.0 65 2.9 S 13 20 7 11 - - 0.0
24/08:00pm 12.1 8.0 4.6 60 3.4 S 15 24 8 13 - - 0.0
24/07:30pm 13.3 8.9 4.5 55 4.1 S 17 26 9 14 - - 0.0
24/07:00pm 14.5 10.5 4.8 52 4.5 S 15 22 8 12 - - 0.0
24/06:30pm 14.7 10.2 4.4 50 4.8 S 17 26 9 14 - - 0.0
24/06:00pm 15.7 11.1 3.8 45 5.5 SSW 17 28 9 15 - - 0.0
24/05:30pm 16.4 10.9 3.8 43 5.9 SSW 22 37 12 20 - - 0.0
24/05:00pm 17.1 12.2 4.1 42 6.1 S 19 28 10 15 - - 0.0
24/04:30pm 17.0 11.9 4.0 42 6.1 S 20 32 11 17 - - 0.0
24/04:00pm 16.2 11.3 4.3 45 5.6 SSE 19 28 10 15 - - 0.0
24/03:30pm 17.9 12.9 4.8 42 6.3 S 20 30 11 16 - - 0.0
24/03:00pm 15.8 11.3 4.2 46 5.4 S 17 28 9 15 - - 0.0
24/02:30pm 15.6 10.7 4.9 49 5.1 S 20 39 11 21 - - 0.0
24/02:00pm 15.9 11.0 2.0 39 6.2 S 17 32 9 17 - - 0.0
24/01:30pm 17.4 12.5 4.0 41 6.3 SSW 19 28 10 15 - - 0.0
24/01:00pm 15.9 11.0 5.2 49 5.1 S 20 32 11 17 - - 0.0
24/12:30pm 15.1 10.3 4.5 49 5.0 SSW 19 28 10 15 - - 0.0
24/12:00pm 15.2 10.8 4.6 49 5.0 S 17 32 9 17 - - 0.0
24/11:30am 15.1 10.3 5.6 53 4.5 S 20 32 11 17 - - 0.0
24/11:00am 15.0 10.4 5.5 53 4.5 S 19 30 10 16 - - 0.0
24/10:30am 13.4 8.5 5.1 57 3.9 S 20 32 11 17 - - 0.0
24/10:00am 13.4 8.2 5.6 59 3.7 S 22 37 12 20 - - 0.0
24/09:30am 12.8 8.7 7.9 72 2.4 SSW 19 28 10 15 - - 0.0
24/09:00am 11.3 8.4 8.2 81 1.5 SW 13 20 7 11 - - 0.0
24/08:30am 9.9 7.4 8.2 89 0.8 WSW 11 17 6 9 - - 0.0
24/08:00am 8.4 5.9 8.1 98 0.1 SW 11 17 6 9 - - 0.0
24/07:30am 7.4 5.1 7.3 99 0.0 WSW 9 13 5 7 - - 0.0
24/07:00am 6.3 4.1 6.3 100 0.0 WSW 7 13 4 7 - - 0.0
24/06:30am 5.9 3.6 5.9 100 0.0 WSW 7 11 4 6 - - 0.0
24/06:00am 5.5 3.2 5.5 100 0.0 WSW 7 9 4 5 - - 0.0
24/05:30am 5.7 3.6 5.7 100 0.0 WSW 6 7 3 4 - - 0.0
24/05:00am 6.5 4.3 6.4 99 0.0 SW 7 11 4 6 - - 0.0
24/04:30am 6.5 4.4 6.5 100 0.0 SW 7 11 4 6 - - 0.0
24/04:00am 6.8 4.7 6.7 99 0.0 SW 7 13 4 7 - - 0.0
24/03:30am 7.0 5.0 7.0 100 0.0 SW 7 11 4 6 - - 0.0
24/03:00am 7.3 5.3 7.2 99 0.0 SW 7 11 4 6 - - 0.0
24/02:30am 8.3 5.4 8.2 99 0.0 SSW 13 19 7 10 - - 0.0
24/02:00am 8.1 5.6 8.0 99 0.0 SSW 11 15 6 8 - - 0.0
24/01:30am 8.0 5.8 7.9 99 0.0 SSW 9 11 5 6 - - 0.0
24/01:00am 8.8 6.4 8.7 99 0.0 SSW 11 17 6 9 - - 0.0
24/12:30am 8.9 6.5 8.8 99 0.0 SSW 11 17 6 9 - - 0.0
24/12:00am 9.3 6.6 9.0 98 0.1 SSW 13 17 7 9 - - 0.0
 
Date/Time
EDT
Temp
°C
App
Temp
°C
Dew
Point
°C
Rel
Hum
%
Delta-T
°C
Wind Press
QNH
hPa
Press
MSL
hPa
Rain since
9am
mm
Dir  Spd
km/h
Gust
km/h
Spd
kts
Gust
kts
23/11:30pm 9.8 7.1 8.9 94 0.4 SSW 13 20 7 11 - - 0.0
23/11:00pm 10.6 7.0 8.4 86 1.1 SSW 17 28 9 15 - - 0.0
23/10:30pm 10.9 7.1 9.0 88 0.9 SSW 19 26 10 14 - - 0.0
23/10:00pm 11.0 7.8 10.1 94 0.5 SSW 17 24 9 13 - - 0.0
23/09:30pm 11.0 8.2 10.1 94 0.5 SSW 15 20 8 11 - - 0.0
23/09:00pm 11.0 8.8 10.7 98 0.2 SSW 13 17 7 9 - - 0.0
23/08:30pm 11.8 8.2 9.9 88 1.0 S 19 26 10 14 - - 0.0
23/08:00pm 12.4 10.6 12.2 99 0.1 SSW 13 17 7 9 - - 0.0
23/07:30pm 12.8 11.1 12.6 99 0.1 S 13 19 7 10 - - 0.0
23/07:00pm 13.3 9.9 12.4 94 0.5 S 22 35 12 19 - - 0.0
23/06:30pm 15.3 12.3 10.5 73 2.5 S 17 22 9 12 - - 0.0
23/06:00pm 17.2 13.4 9.9 62 3.9 S 20 37 11 20 - - 0.0
23/05:30pm 17.9 13.9 10.3 61 4.1 S 22 35 12 19 - - 0.0
23/05:00pm 18.5 13.6 11.3 63 3.9 SSW 28 43 15 23 - - 0.0
23/04:30pm 19.4 15.6 9.9 54 5.1 SSW 20 33 11 18 - - 0.0
23/04:00pm 20.4 17.1 8.1 45 6.4 SW 15 28 8 15 - - 0.0
23/03:30pm 19.2 16.6 10.7 58 4.6 SSW 15 24 8 13 - - 0.0
23/03:00pm 20.2 17.7 12.4 61 4.4 SSW 17 26 9 14 - - 0.0
23/02:30pm 19.6 17.1 12.4 63 4.0 S 17 30 9 16 - - 0.0
23/02:00pm 18.6 15.6 12.6 68 3.4 SSW 20 32 11 17 - - 0.0
23/01:30pm 18.7 16.2 13.6 72 2.9 SSW 19 30 10 16 - - 0.0
23/01:00pm 18.6 16.7 13.0 70 3.2 SW 15 26 8 14 - - 0.0
23/12:30pm 18.9 17.5 13.5 71 3.1 SW 13 22 7 12 - - 0.0
23/12:00pm 18.5 17.2 14.8 79 2.2 WSW 15 24 8 13 - - 0.0
23/11:30am 18.1 17.0 15.4 84 1.6 SW 15 24 8 13 - - 0.0
23/11:00am 17.6 17.5 16.1 91 0.9 SW 11 17 6 9 - - 0.0
23/10:30am 17.4 17.0 16.1 92 0.8 SSW 13 20 7 11 - - 0.0
23/10:00am 16.7 17.2 16.5 99 0.1 SSW 9 17 5 9 - - 0.0
23/09:30am 15.6 15.7 15.6 100 0.0 SSW 9 17 5 9 - - 0.0
23/09:00am 14.7 14.5 14.7 100 0.0 SSW 9 17 5 9 - - 1.8
23/08:30am 14.7 14.5 14.7 100 0.0 SSW 9 15 5 8 - - 1.8
23/08:00am 14.5 14.2 14.5 100 0.0 SW 9 13 5 7 - - 1.8
23/07:30am 14.3 14.5 14.3 100 0.0 SSW 6 9 3 5 - - 1.8
23/07:00am 14.2 14.2 14.2 100 0.0 SW 7 11 4 6 - - 1.8
23/06:30am 14.2 13.8 14.2 100 0.0 SSW 9 11 5 6 - - 1.8
23/06:00am 14.3 14.5 14.3 100 0.0 S 6 9 3 5 - - 1.8
23/05:30am 14.3 14.0 14.3 100 0.0 SW 9 13 5 7 - - 1.6
23/05:00am 14.7 13.7 14.7 100 0.0 SSW 13 22 7 12 - - 1.6
23/04:30am 15.6 16.1 15.6 100 0.0 WSW 7 11 4 6 - - 1.0
23/04:00am 16.0 16.3 16.0 100 0.0 WSW 9 17 5 9 - - 0.6
23/03:30am 16.4 17.4 16.4 100 0.0 W 6 9 3 5 - - 0.4
23/03:00am 16.7 17.8 16.7 100 0.0 WSW 6 9 3 5 - - 0.4
23/02:30am 17.5 18.9 17.3 99 0.1 NW 6 11 3 6 - - 0.4
23/02:00am 17.8 18.9 16.5 92 0.8 N 6 9 3 5 - - 0.2
23/01:30am 17.8 18.7 16.7 93 0.7 NNE 7 11 4 6 - - 0.2
23/01:00am 19.1 18.8 14.4 74 2.7 NW 9 19 5 10 - - 0.0
23/12:30am 19.6 18.6 13.5 68 3.5 NNE 11 19 6 10 - - 0.0
23/12:00am 19.5 19.1 14.1 71 3.1 NNE 9 17 5 9 - - 0.0
 
Date/Time
EDT
Temp
°C
App
Temp
°C
Dew
Point
°C
Rel
Hum
%
Delta-T
°C
Wind Press
QNH
hPa
Press
MSL
hPa
Rain since
9am
mm
Dir  Spd
km/h
Gust
km/h
Spd
kts
Gust
kts
22/11:30pm 19.9 19.3 13.6 67 3.6 ENE 9 13 5 7 - - 0.0
22/11:00pm 19.7 19.8 13.9 69 3.4 NE 6 9 3 5 - - 0.0
22/10:30pm 20.7 20.1 13.6 64 4.1 ENE 9 13 5 7 - - 0.0
22/10:00pm 20.6 20.6 13.6 64 4.0 NE 6 11 3 6 - - 0.0
22/09:30pm 22.3 20.8 12.0 52 5.8 NE 11 17 6 9 - - 0.0
22/09:00pm 22.4 21.3 12.1 52 5.8 NE 9 17 5 9 - - 0.0
22/08:30pm 22.6 21.7 12.5 53 5.8 ENE 9 15 5 8 - - 0.0
22/08:00pm 23.0 21.8 11.7 49 6.4 ENE 9 17 5 9 - - 0.0

Other formats

Comma delimited format used in spreadsheet applications
http://www.bom.gov.au/fwo/IDV60801/IDV60801.95833.axf

JavaScript Object Notation format (JSON) in row-major order
http://www.bom.gov.au/fwo/IDV60801/IDV60801.95833.json

Data quality

Most of these data are generated automatically and are frequently updated. Quality checks on data are not normally performed. It is possible for incorrect values to appear. Refer to information at About Latest Weather Observations and please check the disclaimer before using these data.